Terminal Aerodrome Forecast
Issued by NWS Quad Cities IA IL

Home | Current Version | Previous Version | Text Only | Print | Product List | Glossary On
Versions: 1 2 3 4 5 6 7 8 9 10 11 12 13 14 15 16 17
873
FTUS43 KDVN 170520
TAFDBQ
TAF
KDBQ 170520Z 1706/1806 17010KT P6SM SCT015
      TEMPO 1706/1708 BKN015
     FM170900 25009KT P6SM SKC
     FM171300 27014G22KT P6SM OVC012
     FM172200 28012G20KT P6SM SCT035
     FM180000 29008KT P6SM SKC=

USA.gov is the U.S. government's official web portal to all federal, state and local government web resources and services.